sensor_id;sensor_type;location;lat;lon;timestamp;P1;durP1;ratioP1;P2;durP2;ratioP2
50104;SDS011;47690;39.202;-77.198;2022-12-17T00:00:29;1.67;;;1.58;;
50104;SDS011;47690;39.202;-77.198;2022-12-17T00:03:24;1.50;;;1.40;;
50104;SDS011;47690;39.202;-77.198;2022-12-17T00:06:14;1.70;;;1.60;;
50104;SDS011;47690;39.202;-77.198;2022-12-17T00:09:03;1.80;;;1.65;;
50104;SDS011;47690;39.202;-77.198;2022-12-17T00:11:54;1.70;;;1.60;;
50104;SDS011;47690;39.202;-77.198;2022-12-17T00:14:46;2.28;;;1.45;;
50104;SDS011;47690;39.202;-77.198;2022-12-17T00:17:36;1.88;;;1.70;;
50104;SDS011;47690;39.202;-77.198;2022-12-17T00:20:28;1.92;;;1.80;;
50104;SDS011;47690;39.202;-77.198;2022-12-17T00:23:19;1.70;;;1.60;;
50104;SDS011;47690;39.202;-77.198;2022-12-17T00:26:07;2.08;;;1.88;;
50104;SDS011;47690;39.202;-77.198;2022-12-17T00:29:00;1.80;;;1.70;;
50104;SDS011;47690;39.202;-77.198;2022-12-17T00:31:50;2.10;;;1.85;;
50104;SDS011;47690;39.202;-77.198;2022-12-17T00:34:38;1.70;;;1.60;;
50104;SDS011;47690;39.202;-77.198;2022-12-17T00:37:28;1.60;;;1.45;;
50104;SDS011;47690;39.202;-77.198;2022-12-17T00:40:19;3.42;;;1.58;;
50104;SDS011;47690;39.202;-77.198;2022-12-17T00:43:09;1.80;;;1.70;;
50104;SDS011;47690;39.202;-77.198;2022-12-17T00:46:01;1.85;;;1.70;;
50104;SDS011;47690;39.202;-77.198;2022-12-17T00:48:54;1.50;;;1.40;;
50104;SDS011;47690;39.202;-77.198;2022-12-17T00:51:44;1.70;;;1.60;;
50104;SDS011;47690;39.202;-77.198;2022-12-17T00:54:32;1.83;;;1.73;;
50104;SDS011;47690;39.202;-77.198;2022-12-17T00:57:24;2.42;;;1.80;;
50104;SDS011;47690;39.202;-77.198;2022-12-17T01:00:18;1.70;;;1.60;;
50104;SDS011;47690;39.202;-77.198;2022-12-17T01:03:10;1.70;;;1.60;;
50104;SDS011;47690;39.202;-77.198;2022-12-17T01:06:02;1.70;;;1.60;;
50104;SDS011;47690;39.202;-77.198;2022-12-17T01:08:51;1.95;;;1.75;;
50104;SDS011;47690;39.202;-77.198;2022-12-17T01:11:40;2.13;;;1.85;;
50104;SDS011;47690;39.202;-77.198;2022-12-17T01:14:30;1.80;;;1.70;;
50104;SDS011;47690;39.202;-77.198;2022-12-17T01:17:18;2.67;;;1.65;;
50104;SDS011;47690;39.202;-77.198;2022-12-17T01:20:07;2.13;;;1.95;;
50104;SDS011;47690;39.202;-77.198;2022-12-17T01:22:58;4.57;;;3.47;;
50104;SDS011;47690;39.202;-77.198;2022-12-17T01:25:57;3.72;;;2.83;;
50104;SDS011;47690;39.202;-77.198;2022-12-17T01:28:50;2.58;;;2.35;;
50104;SDS011;47690;39.202;-77.198;2022-12-17T01:31:40;2.00;;;1.80;;
50104;SDS011;47690;39.202;-77.198;2022-12-17T01:34:30;2.10;;;1.90;;
50104;SDS011;47690;39.202;-77.198;2022-12-17T01:37:24;1.90;;;1.77;;
50104;SDS011;47690;39.202;-77.198;2022-12-17T01:40:15;2.13;;;1.80;;
50104;SDS011;47690;39.202;-77.198;2022-12-17T01:43:05;1.75;;;1.63;;
50104;SDS011;47690;39.202;-77.198;2022-12-17T01:46:00;1.70;;;1.60;;
50104;SDS011;47690;39.202;-77.198;2022-12-17T01:48:49;1.70;;;1.60;;
50104;SDS011;47690;39.202;-77.198;2022-12-17T01:51:38;2.13;;;1.80;;
50104;SDS011;47690;39.202;-77.198;2022-12-17T01:54:28;2.10;;;1.90;;
50104;SDS011;47690;39.202;-77.198;2022-12-17T01:57:17;1.90;;;1.60;;
50104;SDS011;47690;39.202;-77.198;2022-12-17T02:00:09;1.30;;;1.23;;
50104;SDS011;47690;39.202;-77.198;2022-12-17T02:03:03;2.00;;;1.80;;
50104;SDS011;47690;39.202;-77.198;2022-12-17T02:06:14;1.70;;;1.60;;
50104;SDS011;47690;39.202;-77.198;2022-12-17T02:09:20;1.77;;;1.60;;
50104;SDS011;47690;39.202;-77.198;2022-12-17T02:15:20;1.40;;;1.40;;
50104;SDS011;47690;39.202;-77.198;2022-12-17T02:18:35;1.70;;;1.60;;
50104;SDS011;47690;39.202;-77.198;2022-12-17T02:21:28;1.38;;;1.33;;
50104;SDS011;47690;39.202;-77.198;2022-12-17T02:27:45;1.98;;;1.50;;
50104;SDS011;47690;39.202;-77.198;2022-12-17T02:30:35;1.70;;;1.60;;
50104;SDS011;47690;39.202;-77.198;2022-12-17T02:33:28;1.90;;;1.80;;
50104;SDS011;47690;39.202;-77.198;2022-12-17T02:36:18;1.70;;;1.60;;
50104;SDS011;47690;39.202;-77.198;2022-12-17T02:39:08;1.83;;;1.60;;
50104;SDS011;47690;39.202;-77.198;2022-12-17T02:42:00;1.83;;;1.73;;
50104;SDS011;47690;39.202;-77.198;2022-12-17T02:44:51;2.10;;;1.90;;
50104;SDS011;47690;39.202;-77.198;2022-12-17T02:47:47;1.90;;;1.70;;
50104;SDS011;47690;39.202;-77.198;2022-12-17T02:50:38;1.70;;;1.60;;
50104;SDS011;47690;39.202;-77.198;2022-12-17T02:53:28;1.60;;;1.50;;
50104;SDS011;47690;39.202;-77.198;2022-12-17T02:56:22;1.90;;;1.70;;
50104;SDS011;47690;39.202;-77.198;2022-12-17T02:59:11;1.88;;;1.75;;
50104;SDS011;47690;39.202;-77.198;2022-12-17T03:02:03;2.00;;;1.80;;
50104;SDS011;47690;39.202;-77.198;2022-12-17T03:05:09;4.35;;;1.90;;
50104;SDS011;47690;39.202;-77.198;2022-12-17T03:08:16;1.67;;;1.58;;
50104;SDS011;47690;39.202;-77.198;2022-12-17T03:11:06;1.60;;;1.50;;
50104;SDS011;47690;39.202;-77.198;2022-12-17T03:14:00;1.77;;;1.67;;
50104;SDS011;47690;39.202;-77.198;2022-12-17T03:16:50;2.13;;;1.92;;
50104;SDS011;47690;39.202;-77.198;2022-12-17T03:19:53;1.70;;;1.60;;
50104;SDS011;47690;39.202;-77.198;2022-12-17T03:22:43;2.63;;;1.70;;
50104;SDS011;47690;39.202;-77.198;2022-12-17T03:25:36;1.40;;;1.40;;
50104;SDS011;47690;39.202;-77.198;2022-12-17T03:28:30;2.22;;;1.80;;
50104;SDS011;47690;39.202;-77.198;2022-12-17T03:31:24;1.80;;;1.70;;
50104;SDS011;47690;39.202;-77.198;2022-12-17T03:34:13;1.65;;;1.55;;
50104;SDS011;47690;39.202;-77.198;2022-12-17T03:37:02;2.00;;;1.80;;
50104;SDS011;47690;39.202;-77.198;2022-12-17T03:39:53;1.92;;;1.70;;
50104;SDS011;47690;39.202;-77.198;2022-12-17T03:42:42;1.85;;;1.70;;
50104;SDS011;47690;39.202;-77.198;2022-12-17T03:45:33;1.90;;;1.80;;
50104;SDS011;47690;39.202;-77.198;2022-12-17T03:48:25;2.35;;;1.63;;
50104;SDS011;47690;39.202;-77.198;2022-12-17T03:51:28;2.10;;;1.90;;
50104;SDS011;47690;39.202;-77.198;2022-12-17T03:54:16;2.08;;;1.83;;
50104;SDS011;47690;39.202;-77.198;2022-12-17T03:57:04;2.05;;;1.83;;
50104;SDS011;47690;39.202;-77.198;2022-12-17T03:59:55;1.80;;;1.70;;
50104;SDS011;47690;39.202;-77.198;2022-12-17T04:02:46;2.03;;;1.90;;
50104;SDS011;47690;39.202;-77.198;2022-12-17T04:05:35;1.70;;;1.60;;
50104;SDS011;47690;39.202;-77.198;2022-12-17T04:08:27;1.75;;;1.65;;
50104;SDS011;47690;39.202;-77.198;2022-12-17T04:11:18;1.90;;;1.80;;
50104;SDS011;47690;39.202;-77.198;2022-12-17T04:14:07;2.67;;;2.10;;
50104;SDS011;47690;39.202;-77.198;2022-12-17T04:16:58;2.35;;;2.15;;
50104;SDS011;47690;39.202;-77.198;2022-12-17T04:19:46;3.28;;;2.38;;
50104;SDS011;47690;39.202;-77.198;2022-12-17T04:22:35;2.50;;;2.20;;
50104;SDS011;47690;39.202;-77.198;2022-12-17T04:25:28;2.95;;;2.28;;
50104;SDS011;47690;39.202;-77.198;2022-12-17T04:28:16;2.28;;;2.08;;
50104;SDS011;47690;39.202;-77.198;2022-12-17T04:31:05;2.63;;;2.28;;
50104;SDS011;47690;39.202;-77.198;2022-12-17T04:33:58;2.75;;;2.20;;
50104;SDS011;47690;39.202;-77.198;2022-12-17T04:36:46;2.72;;;2.30;;
50104;SDS011;47690;39.202;-77.198;2022-12-17T04:39:34;2.90;;;2.47;;
50104;SDS011;47690;39.202;-77.198;2022-12-17T04:42:24;2.40;;;2.20;;
50104;SDS011;47690;39.202;-77.198;2022-12-17T04:45:12;2.50;;;2.30;;
50104;SDS011;47690;39.202;-77.198;2022-12-17T04:48:01;2.30;;;2.10;;
50104;SDS011;47690;39.202;-77.198;2022-12-17T04:50:54;2.83;;;2.20;;
50104;SDS011;47690;39.202;-77.198;2022-12-17T04:53:42;2.30;;;2.10;;
50104;SDS011;47690;39.202;-77.198;2022-12-17T04:56:30;2.90;;;2.10;;
50104;SDS011;47690;39.202;-77.198;2022-12-17T04:59:19;2.58;;;2.17;;
50104;SDS011;47690;39.202;-77.198;2022-12-17T05:02:07;2.63;;;2.20;;
50104;SDS011;47690;39.202;-77.198;2022-12-17T05:04:57;2.25;;;2.05;;
50104;SDS011;47690;39.202;-77.198;2022-12-17T05:07:46;2.47;;;2.10;;
50104;SDS011;47690;39.202;-77.198;2022-12-17T05:10:34;2.47;;;2.15;;
50104;SDS011;47690;39.202;-77.198;2022-12-17T05:13:25;2.63;;;2.13;;
50104;SDS011;47690;39.202;-77.198;2022-12-17T05:16:12;2.40;;;2.20;;
50104;SDS011;47690;39.202;-77.198;2022-12-17T05:19:04;2.47;;;2.20;;
50104;SDS011;47690;39.202;-77.198;2022-12-17T05:21:54;2.10;;;1.90;;
50104;SDS011;47690;39.202;-77.198;2022-12-17T05:24:42;2.42;;;1.95;;
50104;SDS011;47690;39.202;-77.198;2022-12-17T05:27:30;2.30;;;2.10;;
50104;SDS011;47690;39.202;-77.198;2022-12-17T05:30:18;2.42;;;1.90;;
50104;SDS011;47690;39.202;-77.198;2022-12-17T05:33:08;2.25;;;2.05;;
50104;SDS011;47690;39.202;-77.198;2022-12-17T05:36:00;2.10;;;1.90;;
50104;SDS011;47690;39.202;-77.198;2022-12-17T05:38:48;2.38;;;2.10;;
50104;SDS011;47690;39.202;-77.198;2022-12-17T05:41:37;2.40;;;2.10;;
50104;SDS011;47690;39.202;-77.198;2022-12-17T05:44:27;2.70;;;2.10;;
50104;SDS011;47690;39.202;-77.198;2022-12-17T05:47:15;2.10;;;1.90;;
50104;SDS011;47690;39.202;-77.198;2022-12-17T05:50:02;2.30;;;2.05;;
50104;SDS011;47690;39.202;-77.198;2022-12-17T05:52:50;2.63;;;2.00;;
50104;SDS011;47690;39.202;-77.198;2022-12-17T05:55:38;2.72;;;2.05;;
50104;SDS011;47690;39.202;-77.198;2022-12-17T05:58:27;2.10;;;1.90;;
50104;SDS011;47690;39.202;-77.198;2022-12-17T06:01:15;3.25;;;2.03;;
50104;SDS011;47690;39.202;-77.198;2022-12-17T06:04:04;2.30;;;2.10;;
50104;SDS011;47690;39.202;-77.198;2022-12-17T06:06:54;2.20;;;2.00;;
50104;SDS011;47690;39.202;-77.198;2022-12-17T06:09:42;2.25;;;1.90;;
50104;SDS011;47690;39.202;-77.198;2022-12-17T06:12:53;2.20;;;2.00;;
50104;SDS011;47690;39.202;-77.198;2022-12-17T06:15:51;2.50;;;2.00;;
50104;SDS011;47690;39.202;-77.198;2022-12-17T06:18:52;2.42;;;2.00;;
50104;SDS011;47690;39.202;-77.198;2022-12-17T06:21:40;2.42;;;2.17;;
50104;SDS011;47690;39.202;-77.198;2022-12-17T06:24:30;2.28;;;2.00;;
50104;SDS011;47690;39.202;-77.198;2022-12-17T06:27:18;2.67;;;2.20;;
50104;SDS011;47690;39.202;-77.198;2022-12-17T06:30:07;2.40;;;2.20;;
50104;SDS011;47690;39.202;-77.198;2022-12-17T06:33:04;2.25;;;2.05;;
50104;SDS011;47690;39.202;-77.198;2022-12-17T06:35:57;4.45;;;1.85;;
50104;SDS011;47690;39.202;-77.198;2022-12-17T06:38:49;2.05;;;1.85;;
50104;SDS011;47690;39.202;-77.198;2022-12-17T06:41:37;2.42;;;2.10;;
50104;SDS011;47690;39.202;-77.198;2022-12-17T06:44:31;2.20;;;2.00;;
50104;SDS011;47690;39.202;-77.198;2022-12-17T06:47:20;2.78;;;1.95;;
50104;SDS011;47690;39.202;-77.198;2022-12-17T06:50:09;2.60;;;2.20;;
50104;SDS011;47690;39.202;-77.198;2022-12-17T06:53:02;2.30;;;2.05;;
50104;SDS011;47690;39.202;-77.198;2022-12-17T06:55:55;2.65;;;2.20;;
50104;SDS011;47690;39.202;-77.198;2022-12-17T06:58:46;2.33;;;2.13;;
50104;SDS011;47690;39.202;-77.198;2022-12-17T07:01:38;2.35;;;2.15;;
50104;SDS011;47690;39.202;-77.198;2022-12-17T07:04:29;2.30;;;2.00;;
50104;SDS011;47690;39.202;-77.198;2022-12-17T07:07:17;2.53;;;2.00;;
50104;SDS011;47690;39.202;-77.198;2022-12-17T07:10:25;2.80;;;2.08;;
50104;SDS011;47690;39.202;-77.198;2022-12-17T07:13:13;2.30;;;2.10;;
50104;SDS011;47690;39.202;-77.198;2022-12-17T07:16:03;2.53;;;2.20;;
50104;SDS011;47690;39.202;-77.198;2022-12-17T07:18:54;2.35;;;2.15;;
50104;SDS011;47690;39.202;-77.198;2022-12-17T07:21:42;2.53;;;2.10;;
50104;SDS011;47690;39.202;-77.198;2022-12-17T07:24:30;2.45;;;2.25;;
50104;SDS011;47690;39.202;-77.198;2022-12-17T07:27:18;2.58;;;2.10;;
50104;SDS011;47690;39.202;-77.198;2022-12-17T07:30:08;2.92;;;2.13;;
50104;SDS011;47690;39.202;-77.198;2022-12-17T07:36:18;2.38;;;2.17;;
50104;SDS011;47690;39.202;-77.198;2022-12-17T07:39:07;2.53;;;2.13;;
50104;SDS011;47690;39.202;-77.198;2022-12-17T07:41:57;2.35;;;2.10;;
50104;SDS011;47690;39.202;-77.198;2022-12-17T07:44:46;2.50;;;2.30;;
50104;SDS011;47690;39.202;-77.198;2022-12-17T07:47:34;2.50;;;2.10;;
50104;SDS011;47690;39.202;-77.198;2022-12-17T07:50:28;2.92;;;2.20;;
50104;SDS011;47690;39.202;-77.198;2022-12-17T07:53:18;2.75;;;2.17;;
50104;SDS011;47690;39.202;-77.198;2022-12-17T07:56:07;2.60;;;2.03;;
50104;SDS011;47690;39.202;-77.198;2022-12-17T07:58:57;2.90;;;2.20;;
50104;SDS011;47690;39.202;-77.198;2022-12-17T08:01:48;2.30;;;2.10;;
50104;SDS011;47690;39.202;-77.198;2022-12-17T08:04:36;2.58;;;1.90;;
50104;SDS011;47690;39.202;-77.198;2022-12-17T08:07:25;2.30;;;2.08;;
50104;SDS011;47690;39.202;-77.198;2022-12-17T08:10:15;2.20;;;2.00;;
50104;SDS011;47690;39.202;-77.198;2022-12-17T08:13:04;2.17;;;1.98;;
50104;SDS011;47690;39.202;-77.198;2022-12-17T08:15:57;2.00;;;1.80;;
50104;SDS011;47690;39.202;-77.198;2022-12-17T08:18:47;1.95;;;1.80;;
50104;SDS011;47690;39.202;-77.198;2022-12-17T08:21:35;2.00;;;1.90;;
50104;SDS011;47690;39.202;-77.198;2022-12-17T08:24:24;2.13;;;1.80;;
50104;SDS011;47690;39.202;-77.198;2022-12-17T08:27:11;1.92;;;1.75;;
50104;SDS011;47690;39.202;-77.198;2022-12-17T08:30:00;1.90;;;1.80;;
50104;SDS011;47690;39.202;-77.198;2022-12-17T08:32:49;1.98;;;1.80;;
50104;SDS011;47690;39.202;-77.198;2022-12-17T08:35:41;2.10;;;1.90;;
50104;SDS011;47690;39.202;-77.198;2022-12-17T08:38:30;2.10;;;1.80;;
50104;SDS011;47690;39.202;-77.198;2022-12-17T08:41:19;1.88;;;1.75;;
50104;SDS011;47690;39.202;-77.198;2022-12-17T08:44:08;2.00;;;1.80;;
50104;SDS011;47690;39.202;-77.198;2022-12-17T08:46:58;3.10;;;1.90;;
50104;SDS011;47690;39.202;-77.198;2022-12-17T08:49:53;1.83;;;1.70;;
50104;SDS011;47690;39.202;-77.198;2022-12-17T08:52:57;1.88;;;1.67;;
50104;SDS011;47690;39.202;-77.198;2022-12-17T08:55:46;2.30;;;1.90;;
50104;SDS011;47690;39.202;-77.198;2022-12-17T08:58:35;2.17;;;1.85;;
50104;SDS011;47690;39.202;-77.198;2022-12-17T09:01:27;1.80;;;1.70;;
50104;SDS011;47690;39.202;-77.198;2022-12-17T09:04:15;1.80;;;1.70;;
50104;SDS011;47690;39.202;-77.198;2022-12-17T09:07:04;2.03;;;1.80;;
50104;SDS011;47690;39.202;-77.198;2022-12-17T09:09:54;1.70;;;1.60;;
50104;SDS011;47690;39.202;-77.198;2022-12-17T09:12:44;1.90;;;1.75;;
50104;SDS011;47690;39.202;-77.198;2022-12-17T09:15:49;2.25;;;2.03;;
50104;SDS011;47690;39.202;-77.198;2022-12-17T09:18:40;2.00;;;1.80;;
50104;SDS011;47690;39.202;-77.198;2022-12-17T09:21:29;2.10;;;1.90;;
50104;SDS011;47690;39.202;-77.198;2022-12-17T09:24:19;1.80;;;1.70;;
50104;SDS011;47690;39.202;-77.198;2022-12-17T09:27:07;2.28;;;2.00;;
50104;SDS011;47690;39.202;-77.198;2022-12-17T09:29:57;2.00;;;1.83;;
50104;SDS011;47690;39.202;-77.198;2022-12-17T09:32:47;1.80;;;1.70;;
50104;SDS011;47690;39.202;-77.198;2022-12-17T09:35:36;2.17;;;1.60;;
50104;SDS011;47690;39.202;-77.198;2022-12-17T09:38:25;1.80;;;1.70;;
50104;SDS011;47690;39.202;-77.198;2022-12-17T09:41:29;2.00;;;1.80;;
50104;SDS011;47690;39.202;-77.198;2022-12-17T09:51:25;1.65;;;1.55;;
50104;SDS011;47690;39.202;-77.198;2022-12-17T09:57:32;1.70;;;1.60;;
50104;SDS011;47690;39.202;-77.198;2022-12-17T10:00:24;1.70;;;1.60;;
50104;SDS011;47690;39.202;-77.198;2022-12-17T10:03:17;2.45;;;1.60;;
50104;SDS011;47690;39.202;-77.198;2022-12-17T10:06:22;1.80;;;1.70;;
50104;SDS011;47690;39.202;-77.198;2022-12-17T10:09:17;1.40;;;1.35;;
50104;SDS011;47690;39.202;-77.198;2022-12-17T10:12:14;1.67;;;1.58;;
50104;SDS011;47690;39.202;-77.198;2022-12-17T10:15:03;1.35;;;1.25;;
50104;SDS011;47690;39.202;-77.198;2022-12-17T10:18:08;1.70;;;1.60;;
50104;SDS011;47690;39.202;-77.198;2022-12-17T10:21:03;1.80;;;1.70;;
50104;SDS011;47690;39.202;-77.198;2022-12-17T10:24:04;1.63;;;1.52;;
50104;SDS011;47690;39.202;-77.198;2022-12-17T10:26:57;1.40;;;1.30;;
50104;SDS011;47690;39.202;-77.198;2022-12-17T10:29:47;1.90;;;1.80;;
50104;SDS011;47690;39.202;-77.198;2022-12-17T10:32:35;3.10;;;1.83;;
50104;SDS011;47690;39.202;-77.198;2022-12-17T10:35:35;1.77;;;1.67;;
50104;SDS011;47690;39.202;-77.198;2022-12-17T10:41:29;1.30;;;1.30;;
50104;SDS011;47690;39.202;-77.198;2022-12-17T10:44:30;2.03;;;1.80;;
50104;SDS011;47690;39.202;-77.198;2022-12-17T10:47:25;1.70;;;1.60;;
50104;SDS011;47690;39.202;-77.198;2022-12-17T10:50:21;1.98;;;1.80;;
50104;SDS011;47690;39.202;-77.198;2022-12-17T10:53:19;5.10;;;1.95;;
50104;SDS011;47690;39.202;-77.198;2022-12-17T10:56:21;1.85;;;1.70;;
50104;SDS011;47690;39.202;-77.198;2022-12-17T10:59:12;1.70;;;1.60;;
50104;SDS011;47690;39.202;-77.198;2022-12-17T11:02:18;2.78;;;1.60;;
50104;SDS011;47690;39.202;-77.198;2022-12-17T11:05:13;1.95;;;1.73;;
50104;SDS011;47690;39.202;-77.198;2022-12-17T11:08:06;2.45;;;2.25;;
50104;SDS011;47690;39.202;-77.198;2022-12-17T11:11:01;2.63;;;2.28;;
50104;SDS011;47690;39.202;-77.198;2022-12-17T11:13:57;2.33;;;2.13;;
50104;SDS011;47690;39.202;-77.198;2022-12-17T11:16:52;2.55;;;2.25;;
50104;SDS011;47690;39.202;-77.198;2022-12-17T11:19:45;1.90;;;1.80;;
50104;SDS011;47690;39.202;-77.198;2022-12-17T11:22:59;2.08;;;1.80;;
50104;SDS011;47690;39.202;-77.198;2022-12-17T11:25:56;1.80;;;1.70;;
50104;SDS011;47690;39.202;-77.198;2022-12-17T11:29:09;2.00;;;1.80;;
50104;SDS011;47690;39.202;-77.198;2022-12-17T11:32:25;1.70;;;1.60;;
50104;SDS011;47690;39.202;-77.198;2022-12-17T11:41:40;1.70;;;1.60;;
50104;SDS011;47690;39.202;-77.198;2022-12-17T11:44:49;1.65;;;1.55;;
50104;SDS011;47690;39.202;-77.198;2022-12-17T11:48:07;2.00;;;1.85;;
50104;SDS011;47690;39.202;-77.198;2022-12-17T11:51:05;2.28;;;1.60;;
50104;SDS011;47690;39.202;-77.198;2022-12-17T11:54:21;1.70;;;1.60;;
50104;SDS011;47690;39.202;-77.198;2022-12-17T11:57:23;1.80;;;1.70;;
50104;SDS011;47690;39.202;-77.198;2022-12-17T12:00:24;1.75;;;1.63;;
50104;SDS011;47690;39.202;-77.198;2022-12-17T12:09:26;1.65;;;1.55;;
50104;SDS011;47690;39.202;-77.198;2022-12-17T12:35:20;2.17;;;1.77;;
50104;SDS011;47690;39.202;-77.198;2022-12-17T12:38:21;2.10;;;1.83;;
50104;SDS011;47690;39.202;-77.198;2022-12-17T12:41:43;1.83;;;1.63;;
50104;SDS011;47690;39.202;-77.198;2022-12-17T12:44:46;2.60;;;2.10;;
50104;SDS011;47690;39.202;-77.198;2022-12-17T12:51:36;2.30;;;2.08;;
50104;SDS011;47690;39.202;-77.198;2022-12-17T13:01:52;1.63;;;1.52;;
50104;SDS011;47690;39.202;-77.198;2022-12-17T13:04:52;1.80;;;1.70;;
50104;SDS011;47690;39.202;-77.198;2022-12-17T13:07:48;1.90;;;1.80;;
50104;SDS011;47690;39.202;-77.198;2022-12-17T13:10:27;1.80;;;1.70;;
50104;SDS011;47690;39.202;-77.198;2022-12-17T13:13:25;2.20;;;1.98;;
50104;SDS011;47690;39.202;-77.198;2022-12-17T13:17:00;1.88;;;1.77;;
50104;SDS011;47690;39.202;-77.198;2022-12-17T13:20:26;1.50;;;1.40;;
50104;SDS011;47690;39.202;-77.198;2022-12-17T13:26:22;1.50;;;1.45;;
50104;SDS011;47690;39.202;-77.198;2022-12-17T13:42:44;1.52;;;1.42;;
50104;SDS011;47690;39.202;-77.198;2022-12-17T13:49:53;1.63;;;1.52;;
50104;SDS011;47690;39.202;-77.198;2022-12-17T13:53:16;1.58;;;1.48;;
50104;SDS011;47690;39.202;-77.198;2022-12-17T13:56:28;1.48;;;1.48;;
50104;SDS011;47690;39.202;-77.198;2022-12-17T13:59:21;1.52;;;1.42;;
50104;SDS011;47690;39.202;-77.198;2022-12-17T14:02:28;1.63;;;1.52;;
50104;SDS011;47690;39.202;-77.198;2022-12-17T14:05:31;1.60;;;1.50;;
50104;SDS011;47690;39.202;-77.198;2022-12-17T14:08:31;1.70;;;1.60;;
50104;SDS011;47690;39.202;-77.198;2022-12-17T14:11:17;1.30;;;1.27;;
50104;SDS011;47690;39.202;-77.198;2022-12-17T14:14:34;1.35;;;1.35;;
50104;SDS011;47690;39.202;-77.198;2022-12-17T14:17:39;1.73;;;1.60;;
50104;SDS011;47690;39.202;-77.198;2022-12-17T14:20:37;1.63;;;1.52;;
50104;SDS011;47690;39.202;-77.198;2022-12-17T14:23:13;1.60;;;1.50;;
50104;SDS011;47690;39.202;-77.198;2022-12-17T14:26:19;1.40;;;1.35;;
50104;SDS011;47690;39.202;-77.198;2022-12-17T14:29:11;1.45;;;1.38;;
50104;SDS011;47690;39.202;-77.198;2022-12-17T14:35:35;1.70;;;1.60;;
50104;SDS011;47690;39.202;-77.198;2022-12-17T14:38:16;1.70;;;1.60;;
50104;SDS011;47690;39.202;-77.198;2022-12-17T14:41:20;1.80;;;1.63;;
50104;SDS011;47690;39.202;-77.198;2022-12-17T14:44:47;1.70;;;1.60;;
50104;SDS011;47690;39.202;-77.198;2022-12-17T14:47:35;1.70;;;1.60;;
50104;SDS011;47690;39.202;-77.198;2022-12-17T14:53:02;1.50;;;1.40;;
50104;SDS011;47690;39.202;-77.198;2022-12-17T14:56:33;1.50;;;1.40;;
50104;SDS011;47690;39.202;-77.198;2022-12-17T14:59:40;1.50;;;1.40;;
50104;SDS011;47690;39.202;-77.198;2022-12-17T15:02:33;1.60;;;1.50;;
50104;SDS011;47690;39.202;-77.198;2022-12-17T15:05:46;1.52;;;1.42;;
50104;SDS011;47690;39.202;-77.198;2022-12-17T15:08:52;1.60;;;1.50;;
50104;SDS011;47690;39.202;-77.198;2022-12-17T15:11:45;1.50;;;1.40;;
50104;SDS011;47690;39.202;-77.198;2022-12-17T15:14:34;1.65;;;1.55;;
50104;SDS011;47690;39.202;-77.198;2022-12-17T15:17:42;1.58;;;1.48;;
50104;SDS011;47690;39.202;-77.198;2022-12-17T15:21:05;1.27;;;1.25;;
50104;SDS011;47690;39.202;-77.198;2022-12-17T15:24:42;1.23;;;1.23;;
50104;SDS011;47690;39.202;-77.198;2022-12-17T15:27:44;1.60;;;1.50;;
50104;SDS011;47690;39.202;-77.198;2022-12-17T15:30:17;1.30;;;1.20;;
50104;SDS011;47690;39.202;-77.198;2022-12-17T15:33:09;1.42;;;1.33;;
50104;SDS011;47690;39.202;-77.198;2022-12-17T15:35:43;1.70;;;1.60;;
50104;SDS011;47690;39.202;-77.198;2022-12-17T15:38:12;1.23;;;1.23;;
50104;SDS011;47690;39.202;-77.198;2022-12-17T15:40:42;1.73;;;1.63;;
50104;SDS011;47690;39.202;-77.198;2022-12-17T15:43:12;1.50;;;1.40;;
50104;SDS011;47690;39.202;-77.198;2022-12-17T15:45:43;1.40;;;1.30;;
50104;SDS011;47690;39.202;-77.198;2022-12-17T15:48:16;1.58;;;1.48;;
50104;SDS011;47690;39.202;-77.198;2022-12-17T15:50:48;1.60;;;1.50;;
50104;SDS011;47690;39.202;-77.198;2022-12-17T15:53:29;1.52;;;1.42;;
50104;SDS011;47690;39.202;-77.198;2022-12-17T15:56:05;1.92;;;1.80;;
50104;SDS011;47690;39.202;-77.198;2022-12-17T16:00:04;1.48;;;1.38;;
50104;SDS011;47690;39.202;-77.198;2022-12-17T16:02:35;1.40;;;1.40;;
50104;SDS011;47690;39.202;-77.198;2022-12-17T16:05:09;1.33;;;1.27;;
50104;SDS011;47690;39.202;-77.198;2022-12-17T16:07:48;1.52;;;1.42;;
50104;SDS011;47690;39.202;-77.198;2022-12-17T16:10:19;1.40;;;1.40;;
50104;SDS011;47690;39.202;-77.198;2022-12-17T16:12:49;1.60;;;1.50;;
50104;SDS011;47690;39.202;-77.198;2022-12-17T16:15:18;1.70;;;1.60;;
50104;SDS011;47690;39.202;-77.198;2022-12-17T16:17:48;1.65;;;1.55;;
50104;SDS011;47690;39.202;-77.198;2022-12-17T16:20:20;1.63;;;1.52;;
50104;SDS011;47690;39.202;-77.198;2022-12-17T16:22:49;1.48;;;1.38;;
50104;SDS011;47690;39.202;-77.198;2022-12-17T16:25:24;1.70;;;1.60;;
50104;SDS011;47690;39.202;-77.198;2022-12-17T16:27:57;1.70;;;1.60;;
50104;SDS011;47690;39.202;-77.198;2022-12-17T16:30:28;1.35;;;1.35;;
50104;SDS011;47690;39.202;-77.198;2022-12-17T16:32:58;1.52;;;1.42;;
50104;SDS011;47690;39.202;-77.198;2022-12-17T16:35:28;2.00;;;1.50;;
50104;SDS011;47690;39.202;-77.198;2022-12-17T16:37:58;1.48;;;1.38;;
50104;SDS011;47690;39.202;-77.198;2022-12-17T16:40:31;1.75;;;1.65;;
50104;SDS011;47690;39.202;-77.198;2022-12-17T16:43:00;1.70;;;1.60;;
50104;SDS011;47690;39.202;-77.198;2022-12-17T16:45:31;1.73;;;1.63;;
50104;SDS011;47690;39.202;-77.198;2022-12-17T16:48:00;1.50;;;1.40;;
50104;SDS011;47690;39.202;-77.198;2022-12-17T16:50:33;1.50;;;1.40;;
50104;SDS011;47690;39.202;-77.198;2022-12-17T16:53:02;1.92;;;1.80;;
50104;SDS011;47690;39.202;-77.198;2022-12-17T16:55:32;1.40;;;1.30;;
50104;SDS011;47690;39.202;-77.198;2022-12-17T16:58:11;1.58;;;1.48;;
50104;SDS011;47690;39.202;-77.198;2022-12-17T17:00:41;1.95;;;1.40;;
50104;SDS011;47690;39.202;-77.198;2022-12-17T17:03:13;2.00;;;1.70;;
50104;SDS011;47690;39.202;-77.198;2022-12-17T17:05:45;1.55;;;1.45;;
50104;SDS011;47690;39.202;-77.198;2022-12-17T17:08:18;1.30;;;1.30;;
50104;SDS011;47690;39.202;-77.198;2022-12-17T17:11:05;1.58;;;1.48;;
50104;SDS011;47690;39.202;-77.198;2022-12-17T17:13:41;1.40;;;1.30;;
50104;SDS011;47690;39.202;-77.198;2022-12-17T17:18:47;1.48;;;1.38;;
50104;SDS011;47690;39.202;-77.198;2022-12-17T17:21:33;1.42;;;1.42;;
50104;SDS011;47690;39.202;-77.198;2022-12-17T17:24:11;1.23;;;1.23;;
50104;SDS011;47690;39.202;-77.198;2022-12-17T17:26:49;1.48;;;1.38;;
50104;SDS011;47690;39.202;-77.198;2022-12-17T17:29:47;1.50;;;1.40;;
50104;SDS011;47690;39.202;-77.198;2022-12-17T17:32:19;1.27;;;1.27;;
50104;SDS011;47690;39.202;-77.198;2022-12-17T17:34:48;1.50;;;1.40;;
50104;SDS011;47690;39.202;-77.198;2022-12-17T17:37:18;0.90;;;0.90;;
50104;SDS011;47690;39.202;-77.198;2022-12-17T17:39:48;1.52;;;1.42;;
50104;SDS011;47690;39.202;-77.198;2022-12-17T17:42:18;1.58;;;1.50;;
50104;SDS011;47690;39.202;-77.198;2022-12-17T17:44:52;1.55;;;1.45;;
50104;SDS011;47690;39.202;-77.198;2022-12-17T17:47:24;1.60;;;1.50;;
50104;SDS011;47690;39.202;-77.198;2022-12-17T17:49:59;1.40;;;1.30;;
50104;SDS011;47690;39.202;-77.198;2022-12-17T17:52:32;1.70;;;1.60;;
50104;SDS011;47690;39.202;-77.198;2022-12-17T17:55:04;1.58;;;1.48;;
50104;SDS011;47690;39.202;-77.198;2022-12-17T17:57:37;1.67;;;1.58;;
50104;SDS011;47690;39.202;-77.198;2022-12-17T18:00:13;1.80;;;1.70;;
50104;SDS011;47690;39.202;-77.198;2022-12-17T18:02:49;1.40;;;1.30;;
50104;SDS011;47690;39.202;-77.198;2022-12-17T18:05:36;1.53;;;1.43;;
50104;SDS011;47690;39.202;-77.198;2022-12-17T18:08:34;1.35;;;1.25;;
50104;SDS011;47690;39.202;-77.198;2022-12-17T18:11:13;1.33;;;1.23;;
50104;SDS011;47690;39.202;-77.198;2022-12-17T18:13:52;1.50;;;1.40;;
50104;SDS011;47690;39.202;-77.198;2022-12-17T18:16:44;1.20;;;1.20;;